createdAt,value
2018-07-09T00:00:18.652Z,95940.4
2018-07-09T00:01:20.858Z,95940
2018-07-09T00:02:23.306Z,95944.2
2018-07-09T00:03:25.466Z,95941.2
2018-07-09T00:04:27.636Z,95939.7
2018-07-09T00:05:29.826Z,95938.1
2018-07-09T00:06:31.705Z,95939.6
2018-07-09T00:07:33.899Z,95935.4
2018-07-09T00:08:35.782Z,95936.7
2018-07-09T00:09:37.689Z,95938.4
2018-07-09T00:10:40.145Z,95939.1
2018-07-09T00:11:42.333Z,95938.7
2018-07-09T00:12:44.520Z,95939.2
2018-07-09T00:13:46.429Z,95936.9
2018-07-09T00:14:48.880Z,95939.2
2018-07-09T00:15:51.327Z,95936.3
2018-07-09T00:16:53.778Z,95939.5
2018-07-09T00:17:56.233Z,95937.8
2018-07-09T00:18:58.419Z,95937.1
2018-07-09T00:20:00.293Z,95940.2
2018-07-09T00:21:02.470Z,95936.8
2018-07-09T00:22:04.642Z,95932.5
2018-07-09T00:23:06.548Z,95933.6
2018-07-09T00:24:08.725Z,95932.4
2018-07-09T00:25:10.615Z,95932.1
2018-07-09T00:26:12.782Z,95931.9
2018-07-09T00:27:14.983Z,95931.1
2018-07-09T00:28:17.427Z,95927.3
2018-07-09T00:29:19.615Z,95925.9
2018-07-09T00:30:22.077Z,95925.8
2018-07-09T00:31:24.521Z,95928.6
2018-07-09T00:32:26.991Z,95926.8
2018-07-09T00:33:29.173Z,95928.4
2018-07-09T00:34:31.320Z,95923.9
2018-07-09T00:35:33.765Z,95926.1
2018-07-09T00:36:35.667Z,95928.9
2018-07-09T00:37:37.842Z,95922.4
2018-07-09T00:38:40.016Z,95925.3
2018-07-09T00:39:42.197Z,95928.9
2018-07-09T00:40:44.098Z,95926.9
2018-07-09T00:41:46.246Z,95924.8
2018-07-09T00:42:48.428Z,95920.8
2018-07-09T00:43:50.620Z,95922.5
2018-07-09T00:44:52.767Z,95923.3
2018-07-09T00:45:55.217Z,95920.7
2018-07-09T00:46:57.659Z,95919.9
2018-07-09T00:47:59.827Z,95918.8
2018-07-09T00:49:02.066Z,95918.1
2018-07-09T00:50:04.504Z,95917.7
2018-07-09T00:51:07.080Z,95918.4
2018-07-09T00:52:09.720Z,95913.5
2018-07-09T00:53:11.611Z,95914.1
2018-07-09T00:54:13.788Z,95919.3
2018-07-09T00:55:15.992Z,95914
2018-07-09T00:56:17.885Z,95917.1
2018-07-09T00:57:20.067Z,95916.3
2018-07-09T00:58:22.225Z,95910.7
2018-07-09T00:59:24.396Z,95910.8
2018-07-09T01:00:26.280Z,95911.1
2018-07-09T01:01:28.462Z,95911.5
2018-07-09T01:02:30.684Z,95909.3
2018-07-09T01:03:32.866Z,95910.4
2018-07-09T01:04:34.505Z,95911.5
2018-07-09T01:05:36.387Z,95908.2
2018-07-09T01:06:38.562Z,95908.4
2018-07-09T01:07:41.061Z,95906.5
2018-07-09T01:08:43.500Z,95906.4
2018-07-09T01:09:45.666Z,95903.1
2018-07-09T01:10:48.124Z,95905.6
2018-07-09T01:11:50.583Z,95907.1
2018-07-09T01:12:52.748Z,95905.2
2018-07-09T01:13:55.201Z,95904.8
2018-07-09T01:14:57.637Z,95903.1
2018-07-09T01:15:59.783Z,95905.2
2018-07-09T01:17:01.966Z,95901.7
2018-07-09T01:18:03.887Z,95902.2
2018-07-09T01:19:06.061Z,95900.2
2018-07-09T01:20:08.230Z,95901.2
2018-07-09T01:21:10.676Z,95901.4
2018-07-09T01:22:13.127Z,95902
2018-07-09T01:23:14.999Z,95900.6
2018-07-09T01:24:16.908Z,95899.6
2018-07-09T01:25:19.081Z,95900
2018-07-09T01:26:21.552Z,95897.1
2018-07-09T01:27:23.729Z,95897.7
2018-07-09T01:28:26.183Z,95894.4
2018-07-09T01:29:27.818Z,95896.1
2018-07-09T01:30:29.725Z,95892.1
2018-07-09T01:31:31.910Z,95892.8
2018-07-09T01:32:33.807Z,95899
2018-07-09T01:33:35.980Z,95895.3
2018-07-09T01:34:38.128Z,95893.4
2018-07-09T01:35:40.279Z,95897.5
2018-07-09T01:36:42.466Z,95894.8
2018-07-09T01:37:44.668Z,95896.4
2018-07-09T01:38:46.860Z,95896.2
2018-07-09T01:39:49.029Z,95896.6
2018-07-09T01:40:51.477Z,95894.3
2018-07-09T01:41:53.654Z,95898.2
2018-07-09T01:42:55.814Z,95891.4
2018-07-09T01:43:57.968Z,95890.6
2018-07-09T01:45:00.147Z,95890.8
2018-07-09T01:46:02.332Z,95887
2018-07-09T01:47:04.487Z,95888
2018-07-09T01:48:06.936Z,95888.1
2018-07-09T01:49:09.393Z,95884.3
2018-07-09T01:50:11.585Z,95886.8
2018-07-09T01:51:13.482Z,95887.3
2018-07-09T01:52:15.943Z,95887.7
2018-07-09T01:53:18.374Z,95887
2018-07-09T01:54:20.818Z,95885.7
2018-07-09T01:55:23.268Z,95884.4
2018-07-09T01:56:25.752Z,95890.5
2018-07-09T01:57:27.913Z,95885.9
2018-07-09T01:58:30.091Z,95885.6
2018-07-09T01:59:32.004Z,95886.9
2018-07-09T02:00:34.178Z,95887.2
2018-07-09T02:01:36.076Z,95888.1
2018-07-09T02:02:38.543Z,95884
2018-07-09T02:03:40.764Z,95886
2018-07-09T02:04:43.225Z,95884.6
2018-07-09T02:05:45.673Z,95883.7
2018-07-09T02:06:47.838Z,95885.2
2018-07-09T02:07:50.292Z,95880.9
2018-07-09T02:08:52.742Z,95881.2
2018-07-09T02:09:54.907Z,95882.1
2018-07-09T02:10:57.097Z,95884.1
2018-07-09T02:11:59.278Z,95883.3
2018-07-09T02:13:01.449Z,95882.9
2018-07-09T02:14:03.624Z,95884
2018-07-09T02:15:05.817Z,95882.3
2018-07-09T02:16:08.009Z,95887.2
2018-07-09T02:17:09.609Z,95883.4
2018-07-09T02:18:11.793Z,95884
2018-07-09T02:19:13.464Z,95886.4
2018-07-09T02:20:15.633Z,95884.8
2018-07-09T02:21:17.819Z,95887.5
2018-07-09T02:22:20.268Z,95882.6
2018-07-09T02:23:22.728Z,95886.7
2018-07-09T02:24:24.917Z,95886.4
2018-07-09T02:25:27.107Z,95884.8
2018-07-09T02:26:29.547Z,95888.8
2018-07-09T02:27:31.736Z,95887.6
2018-07-09T02:28:33.654Z,95890.1
2018-07-09T02:29:35.550Z,95889.8
2018-07-09T02:30:37.687Z,95889.5
2018-07-09T02:31:39.878Z,95890.4
2018-07-09T02:32:42.047Z,95885
2018-07-09T02:33:44.215Z,95886.6
2018-07-09T02:34:46.135Z,95885.2
2018-07-09T02:35:48.311Z,95887.1
2018-07-09T02:36:50.581Z,95884.4
2018-07-09T02:37:52.488Z,95881.4
2018-07-09T02:38:54.680Z,95884
2018-07-09T02:39:56.591Z,95883
2018-07-09T02:40:58.478Z,95884.7
2018-07-09T02:42:00.942Z,95881.5
2018-07-09T02:43:03.393Z,95888.5
2018-07-09T02:44:05.551Z,95883.7
2018-07-09T02:45:07.762Z,95885.3
2018-07-09T02:46:10.216Z,95884.4
2018-07-09T02:47:12.396Z,95883.8
2018-07-09T02:48:14.837Z,95888.2
2018-07-09T02:49:17.634Z,95885.9
2018-07-09T02:50:20.224Z,95884.4
2018-07-09T02:51:22.396Z,95883.3
2018-07-09T02:52:24.849Z,95889.5
2018-07-09T02:53:27.288Z,95892.1
2018-07-09T02:54:29.726Z,95887.2
2018-07-09T02:55:31.907Z,95892.5
2018-07-09T02:56:33.818Z,95891.4
2018-07-09T02:57:35.997Z,95891.8
2018-07-09T02:58:38.187Z,95897.2
2018-07-09T02:59:40.623Z,95898.2
2018-07-09T03:00:43.059Z,95899.4
2018-07-09T03:01:45.626Z,95898.8
2018-07-09T03:02:47.523Z,95896.6
2018-07-09T03:03:49.989Z,95894.8
2018-07-09T03:04:51.911Z,95898.4
2018-07-09T03:05:54.090Z,95901.5
2018-07-09T03:06:55.998Z,95898.8
2018-07-09T03:07:58.173Z,95895.9
2018-07-09T03:09:00.332Z,95899.9
2018-07-09T03:10:02.862Z,95899.2
2018-07-09T03:11:05.310Z,95901.2
2018-07-09T03:12:07.755Z,95898.7
2018-07-09T03:13:09.938Z,95904.1
2018-07-09T03:14:12.392Z,95902.3
2018-07-09T03:15:14.559Z,95903.4
2018-07-09T03:16:17.007Z,95899.3
2018-07-09T03:17:19.184Z,95902.7
2018-07-09T03:18:21.626Z,95904.7
2018-07-09T03:19:23.804Z,95906.4
2018-07-09T03:20:25.673Z,95903
2018-07-09T03:21:27.846Z,95904.2
2018-07-09T03:22:29.762Z,95903.7
2018-07-09T03:23:31.921Z,95903
2018-07-09T03:24:34.095Z,95902.2
2018-07-09T03:25:35.991Z,95904.5
2018-07-09T03:26:38.176Z,95901.2
2018-07-09T03:27:39.833Z,95905.4
2018-07-09T03:28:42.287Z,95902.2
2018-07-09T03:29:44.862Z,95902
2018-07-09T03:30:47.079Z,95902.3
2018-07-09T03:31:48.953Z,95900.1
2018-07-09T03:32:51.117Z,95900
2018-07-09T03:33:53.589Z,95900.6
2018-07-09T03:34:55.764Z,95896
2018-07-09T03:35:58.256Z,95897.8
2018-07-09T03:37:00.129Z,95898.8
2018-07-09T03:38:02.520Z,95895.3
2018-07-09T03:39:04.965Z,95896.5
2018-07-09T03:40:07.426Z,95898.5
2018-07-09T03:41:09.340Z,95899.4
2018-07-09T03:42:11.516Z,95899.6
2018-07-09T03:43:13.424Z,95901.9
2018-07-09T03:44:15.607Z,95900.1
2018-07-09T03:45:18.051Z,95898.8
2018-07-09T03:46:19.955Z,95897.8
2018-07-09T03:47:22.127Z,95900.4
2018-07-09T03:48:24.304Z,95902
2018-07-09T03:49:25.913Z,95902.7
2018-07-09T03:50:28.356Z,95901.2
2018-07-09T03:51:30.528Z,95903.5
2018-07-09T03:52:32.680Z,95904.5
2018-07-09T03:53:35.133Z,95904.2
2018-07-09T03:54:37.584Z,95905.2
2018-07-09T03:55:39.739Z,95905.1
2018-07-09T03:56:41.913Z,95906.4
2018-07-09T03:57:44.094Z,95901.8
2018-07-09T03:58:46.266Z,95907.8
2018-07-09T03:59:48.713Z,95906
2018-07-09T04:00:51.161Z,95909
2018-07-09T04:01:53.336Z,95907
2018-07-09T04:02:55.894Z,95910
2018-07-09T04:03:57.938Z,95912.1
2018-07-09T04:04:59.936Z,95907.1
2018-07-09T04:06:02.136Z,95909.4
2018-07-09T04:07:04.333Z,95906.9
2018-07-09T04:08:06.778Z,95902.7
2018-07-09T04:09:09.229Z,95905.5
2018-07-09T04:10:11.144Z,95905.1
2018-07-09T04:11:13.593Z,95904.7
2018-07-09T04:12:15.800Z,95910.8
2018-07-09T04:13:18.243Z,95911.2
2018-07-09T04:14:20.705Z,95909.7
2018-07-09T04:15:22.616Z,95909.5
2018-07-09T04:16:24.790Z,95910
2018-07-09T04:17:27.236Z,95909.1
2018-07-09T04:18:29.153Z,95910.3
2018-07-09T04:19:31.030Z,95914.3
2018-07-09T04:20:33.485Z,95913
2018-07-09T04:21:35.389Z,95916.2
2018-07-09T04:22:37.565Z,95917.6
2018-07-09T04:23:39.725Z,95915.1
2018-07-09T04:24:41.909Z,95914.3
2018-07-09T04:25:43.807Z,95916.6
2018-07-09T04:26:46.257Z,95915
2018-07-09T04:27:48.703Z,95915.9
2018-07-09T04:28:51.147Z,95918.7
2018-07-09T04:29:53.606Z,95914.1
2018-07-09T04:30:55.772Z,95918
2018-07-09T04:31:57.686Z,95916.1
2018-07-09T04:32:59.867Z,95917.8
2018-07-09T04:34:02.375Z,95915.6
2018-07-09T04:35:04.568Z,95916.8
2018-07-09T04:36:07.060Z,95915.8
2018-07-09T04:37:09.245Z,95914.1
2018-07-09T04:38:11.699Z,95913.6
2018-07-09T04:39:14.146Z,95911
2018-07-09T04:40:16.038Z,95912.7
2018-07-09T04:41:18.184Z,95913.5
2018-07-09T04:42:20.387Z,95918.1
2018-07-09T04:43:22.944Z,95916.4
2018-07-09T04:44:25.112Z,95911.4
2018-07-09T04:45:27.027Z,95915.5
2018-07-09T04:46:29.472Z,95911.7
2018-07-09T04:47:31.929Z,95910.1
2018-07-09T04:48:34.386Z,95914.9
2018-07-09T04:49:36.816Z,95914.8
2018-07-09T04:50:39.277Z,95913.2
2018-07-09T04:51:41.727Z,95911.3
2018-07-09T04:52:43.915Z,95908.9
2018-07-09T04:53:46.137Z,95910.1
2018-07-09T04:54:48.293Z,95901.8
2018-07-09T04:55:50.203Z,95905.1
2018-07-09T04:56:52.657Z,95905.9
2018-07-09T04:57:54.820Z,95907.7
2018-07-09T04:58:57.002Z,95906.1
2018-07-09T04:59:59.440Z,95908.1
2018-07-09T05:01:01.590Z,95911.8
2018-07-09T05:02:04.090Z,95902.4
2018-07-09T05:03:05.999Z,95902.2
2018-07-09T05:04:08.305Z,95902.5
2018-07-09T05:05:10.807Z,95902.7
2018-07-09T05:06:12.428Z,95901.2
2018-07-09T05:07:14.345Z,95903.3
2018-07-09T05:08:16.786Z,95897.7
2018-07-09T05:09:19.236Z,95894.8
2018-07-09T05:10:21.130Z,95898.1
2018-07-09T05:11:23.576Z,95894.8
2018-07-09T05:12:26.023Z,95897.2
2018-07-09T05:13:28.200Z,95896.6
2018-07-09T05:14:30.354Z,95896.4
2018-07-09T05:15:32.808Z,95894.4
2018-07-09T05:16:34.714Z,95896.3
2018-07-09T05:17:36.607Z,95896.9
2018-07-09T05:18:39.139Z,95895.7
2018-07-09T05:19:41.460Z,95898.9
2018-07-09T05:20:44.398Z,95895.8
2018-07-09T05:21:46.815Z,95894.2
2018-07-09T05:22:49.287Z,95898.3
2018-07-09T05:23:51.460Z,95894.8
2018-07-09T05:24:53.645Z,95894.4
2018-07-09T05:25:55.532Z,95895.2
2018-07-09T05:26:57.464Z,95893.2
2018-07-09T05:27:59.070Z,95891
2018-07-09T05:29:01.247Z,95895.4
2018-07-09T05:30:02.883Z,95893
2018-07-09T05:31:05.046Z,95894.7
2018-07-09T05:32:07.507Z,95893.4
2018-07-09T05:33:09.796Z,95892.9
2018-07-09T05:34:11.740Z,95888.2
2018-07-09T05:35:13.918Z,95889.9
2018-07-09T05:36:16.078Z,95885.6
2018-07-09T05:37:18.245Z,95890.2
2018-07-09T05:38:20.705Z,95886.9
2018-07-09T05:39:22.609Z,95891.6
2018-07-09T05:40:25.053Z,95889.6
2018-07-09T05:41:27.264Z,95892.6
2018-07-09T05:42:29.197Z,95886.6
2018-07-09T05:43:31.363Z,95888.4
2018-07-09T05:44:33.804Z,95888.1
2018-07-09T05:45:36.248Z,95893.5
2018-07-09T05:46:38.168Z,95890.1
2018-07-09T05:47:40.615Z,95887
2018-07-09T05:48:43.099Z,95889
2018-07-09T05:49:45.555Z,95890.5
2018-07-09T05:50:48.007Z,95892.1
2018-07-09T05:51:50.450Z,95892.6
2018-07-09T05:52:52.895Z,95893
2018-07-09T05:53:55.093Z,95893.1
2018-07-09T05:54:57.550Z,95896.8
2018-07-09T05:56:00.011Z,95899
2018-07-09T05:57:02.187Z,95899
2018-07-09T05:58:04.631Z,95895.2
2018-07-09T05:59:07.081Z,95895.9
2018-07-09T06:00:09.276Z,95895.7
2018-07-09T06:01:11.726Z,95895
2018-07-09T06:02:13.896Z,95897.2
2018-07-09T06:03:15.803Z,95896.2
2018-07-09T06:04:18.329Z,95899.1
2018-07-09T06:05:20.596Z,95898.1
2018-07-09T06:06:22.824Z,95900.5
2018-07-09T06:07:25.108Z,95896.8
2018-07-09T06:08:26.816Z,95900.7
2018-07-09T06:09:28.716Z,95901.5
2018-07-09T06:10:30.880Z,95900.8
2018-07-09T06:11:33.224Z,95898.5
2018-07-09T06:12:35.463Z,95900.6
2018-07-09T06:13:38.232Z,95894.6
2018-07-09T06:14:39.757Z,95899
2018-07-09T06:15:42.203Z,95901.5
2018-07-09T06:16:44.661Z,95900.9
2018-07-09T06:17:46.836Z,95901.2
2018-07-09T06:18:49.287Z,95904.1
2018-07-09T06:19:51.187Z,95905.9
2018-07-09T06:20:53.334Z,95905.5
2018-07-09T06:21:55.504Z,95903.8
2018-07-09T06:22:57.657Z,95904.1
2018-07-09T06:23:59.839Z,95903.6
2018-07-09T06:25:02.274Z,95901.3
2018-07-09T06:26:04.429Z,95899.5
2018-07-09T06:27:06.607Z,95901.3
2018-07-09T06:28:09.060Z,95901
2018-07-09T06:29:11.521Z,95899.2
2018-07-09T06:30:13.972Z,95899
2018-07-09T06:31:16.404Z,95899.7
2018-07-09T06:32:18.578Z,95902.8
2018-07-09T06:33:20.747Z,95897.1
2018-07-09T06:34:22.926Z,95899.4
2018-07-09T06:35:24.862Z,95897.6
2018-07-09T06:36:26.745Z,95896.7
2018-07-09T06:37:29.196Z,95896.6
2018-07-09T06:38:31.655Z,95895.5
2018-07-09T06:39:33.827Z,95899.9
2018-07-09T06:40:35.974Z,95898
2018-07-09T06:41:38.441Z,95901.8
2018-07-09T06:42:40.595Z,95894.9
2018-07-09T06:43:42.785Z,95900
2018-07-09T06:44:45.148Z,95902.4
2018-07-09T06:45:47.061Z,95901.9
2018-07-09T06:46:49.516Z,95904.5
2018-07-09T06:47:51.686Z,95901
2018-07-09T06:48:53.843Z,95902.4
2018-07-09T06:49:56.135Z,95902.1
2018-07-09T06:50:58.566Z,95898.8
2018-07-09T06:52:01.016Z,95902.4
2018-07-09T06:53:03.467Z,95898.9
2018-07-09T06:54:05.635Z,95900.4
2018-07-09T06:55:07.813Z,95897.8
2018-07-09T06:56:09.711Z,95899.5
2018-07-09T06:57:12.157Z,95902.1
2018-07-09T06:58:14.603Z,95901
2018-07-09T06:59:16.777Z,95899.3
2018-07-09T07:00:19.221Z,95898.2
2018-07-09T07:01:21.393Z,95896.5
2018-07-09T07:02:23.767Z,95897.6
2018-07-09T07:03:26.491Z,95894.7
2018-07-09T07:04:28.946Z,95894.5
2018-07-09T07:05:31.126Z,95896.8
2018-07-09T07:06:33.310Z,95896.8
2018-07-09T07:07:35.803Z,95898.2
2018-07-09T07:08:38.094Z,95899.3
2018-07-09T07:09:40.590Z,95897.9
2018-07-09T07:10:42.881Z,95898.8
2018-07-09T07:11:45.068Z,95898
2018-07-09T07:12:46.977Z,95898.4
2018-07-09T07:13:49.422Z,95900.2
2018-07-09T07:14:51.337Z,95894.8
2018-07-09T07:15:53.506Z,95896.2
2018-07-09T07:16:55.138Z,95893.7
2018-07-09T07:17:57.325Z,95891.3
2018-07-09T07:18:59.766Z,95896.1
2018-07-09T07:20:01.906Z,95899.2
2018-07-09T07:21:04.399Z,95896.7
2018-07-09T07:22:06.428Z,95895.6
2018-07-09T07:23:08.337Z,95896
2018-07-09T07:24:10.780Z,95898.5
2018-07-09T07:25:12.652Z,95896.9
2018-07-09T07:26:15.100Z,95893.4
2018-07-09T07:27:17.246Z,95892.1
2018-07-09T07:28:19.697Z,95891.4
2018-07-09T07:29:21.596Z,95893.7
2018-07-09T07:30:23.484Z,95888.7
2018-07-09T07:31:25.938Z,95890.9
2018-07-09T07:32:28.121Z,95894.6
2018-07-09T07:33:30.269Z,95895.5
2018-07-09T07:34:32.707Z,95891.9
2018-07-09T07:35:34.890Z,95889.9
2018-07-09T07:36:36.834Z,95891.8
2018-07-09T07:37:38.999Z,95892.2
2018-07-09T07:38:41.458Z,95892.6
2018-07-09T07:39:43.906Z,95894.7
2018-07-09T07:40:46.368Z,95896.5
2018-07-09T07:41:48.815Z,95893.2
2018-07-09T07:42:50.705Z,95895.2
2018-07-09T07:43:52.873Z,95892.7
2018-07-09T07:44:55.541Z,95892.9
2018-07-09T07:45:57.786Z,95895.7
2018-07-09T07:46:59.930Z,95893.6
2018-07-09T07:48:01.849Z,95897.5
2018-07-09T07:49:04.023Z,95895.8
2018-07-09T07:50:06.292Z,95898.5
2018-07-09T07:51:08.497Z,95896.5
2018-07-09T07:52:10.682Z,95898.3
2018-07-09T07:53:12.864Z,95893.8
2018-07-09T07:54:15.016Z,95894.2
2018-07-09T07:55:17.462Z,95893.9
2018-07-09T07:56:19.999Z,95889.5
2018-07-09T07:57:22.462Z,95888.1
2018-07-09T07:58:24.943Z,95889.6
2018-07-09T07:59:27.402Z,95892.5
2018-07-09T08:00:29.850Z,95892.2
2018-07-09T08:01:32.018Z,95889.4
2018-07-09T08:02:34.196Z,95891.6
2018-07-09T08:03:36.121Z,95885.8
2018-07-09T08:04:38.560Z,95888.3
2018-07-09T08:05:41.020Z,95886.5
2018-07-09T08:06:43.463Z,95885.1
2018-07-09T08:07:45.369Z,95887.6
2018-07-09T08:08:47.290Z,95884
2018-07-09T08:09:49.481Z,95882.9
2018-07-09T08:10:51.935Z,95879.3
2018-07-09T08:11:54.383Z,95881.4
2018-07-09T08:14:06.439Z,95879.2
2018-07-09T08:15:09.001Z,95875.7
2018-07-09T08:16:11.560Z,95881.2
2018-07-09T08:17:14.075Z,95880.4
2018-07-09T08:18:16.063Z,95879.8
2018-07-09T08:19:18.229Z,95874.4
2018-07-09T08:20:20.127Z,95876.6
2018-07-09T08:21:22.652Z,95877.9
2018-07-09T08:22:24.554Z,95878.3
2018-07-09T08:23:26.435Z,95877.2
2018-07-09T08:24:28.868Z,95875
2018-07-09T08:25:31.353Z,95876
2018-07-09T08:26:33.878Z,95874.9
2018-07-09T08:27:36.343Z,95871.3
2018-07-09T08:28:38.798Z,95867.9
2018-07-09T08:29:40.951Z,95874.5
2018-07-09T08:30:43.141Z,95869.9
2018-07-09T08:31:45.588Z,95868
2018-07-09T08:32:47.780Z,95863.2
2018-07-09T08:33:50.242Z,95862.3
2018-07-09T08:34:52.705Z,95868.4
2018-07-09T08:35:55.157Z,95865
2018-07-09T08:36:57.330Z,95865.9
2018-07-09T08:37:59.387Z,95863.6
2018-07-09T08:39:01.590Z,95864.1
2018-07-09T08:40:03.778Z,95863.6
2018-07-09T08:41:05.943Z,95865.9
2018-07-09T08:42:08.392Z,95868.3
2018-07-09T08:43:10.538Z,95871.5
2018-07-09T08:44:12.420Z,95866.5
2018-07-09T08:45:14.611Z,95866.7
2018-07-09T08:46:17.066Z,95866.5
2018-07-09T08:47:19.427Z,95869.2
2018-07-09T08:48:21.942Z,95868
2018-07-09T08:49:24.087Z,95867.4
2018-07-09T08:50:26.292Z,95862.7
2018-07-09T08:51:28.737Z,95861.5
2018-07-09T08:52:30.597Z,95858.5
2018-07-09T08:53:33.048Z,95858.1
2018-07-09T08:54:35.496Z,95855.2
2018-07-09T08:55:37.663Z,95855
2018-07-09T08:56:40.164Z,95854.6
2018-07-09T08:57:42.601Z,95855.1
2018-07-09T08:58:45.053Z,95855.1
2018-07-09T08:59:47.238Z,95854.3
2018-07-09T09:00:49.396Z,95854.4
2018-07-09T09:01:51.297Z,95859.9
2018-07-09T09:02:53.468Z,95863.4
2018-07-09T09:03:55.728Z,95860.8
2018-07-09T09:04:57.632Z,95861
2018-07-09T09:05:59.812Z,95862.3
2018-07-09T09:07:02.256Z,95860
2018-07-09T09:08:04.709Z,95856.9
2018-07-09T09:09:07.151Z,95859.1
2018-07-09T09:10:09.456Z,95857.9
2018-07-09T09:11:12.119Z,95856.2
2018-07-09T09:12:14.567Z,95856.3
2018-07-09T09:13:16.780Z,95858.4
2018-07-09T09:14:19.225Z,95859.5
2018-07-09T09:15:21.368Z,95859.3
2018-07-09T09:16:23.555Z,95860
2018-07-09T09:17:25.743Z,95862.1
2018-07-09T09:18:28.190Z,95865.3
2018-07-09T09:19:30.637Z,95862.5
2018-07-09T09:20:32.828Z,95863.8
2018-07-09T09:21:34.446Z,95861.7
2018-07-09T09:22:36.631Z,95860.9
2018-07-09T09:23:39.077Z,95861.9
2018-07-09T09:24:41.265Z,95853.7
2018-07-09T09:25:43.160Z,95854.7
2018-07-09T09:26:45.599Z,95849.6
2018-07-09T09:27:48.043Z,95849.3
2018-07-09T09:28:50.510Z,95851.5
2018-07-09T09:29:52.689Z,95846.4
2018-07-09T09:30:54.878Z,95849.2
2018-07-09T09:31:57.062Z,95849.5
2018-07-09T09:32:58.952Z,95849.7
2018-07-09T09:34:01.396Z,95847.3
2018-07-09T09:35:03.847Z,95846
2018-07-09T09:36:06.015Z,95846.1
2018-07-09T09:37:08.478Z,95843.8
2018-07-09T09:38:10.656Z,95841.3
2018-07-09T09:39:13.122Z,95844.6
2018-07-09T09:40:15.293Z,95848.9
2018-07-09T09:41:17.199Z,95847.6
2018-07-09T09:42:19.332Z,95849.9
2018-07-09T09:43:21.507Z,95847.4
2018-07-09T09:44:23.695Z,95846.6
2018-07-09T09:45:26.152Z,95847.9
2018-07-09T09:46:28.597Z,95846.4
2018-07-09T09:47:30.206Z,95844.7
2018-07-09T09:48:32.377Z,95847
2018-07-09T09:49:34.561Z,95847.9
2018-07-09T09:50:36.754Z,95844.6
2018-07-09T09:51:39.210Z,95845.3
2018-07-09T09:52:41.652Z,95842.5
2018-07-09T09:53:43.816Z,95842.5
2018-07-09T09:54:46.258Z,95841.2
2018-07-09T09:55:48.170Z,95840
2018-07-09T09:56:50.612Z,95836.7
2018-07-09T09:57:53.071Z,95842.3
2018-07-09T09:58:55.235Z,95842.2
2018-07-09T09:59:57.684Z,95843.3
2018-07-09T10:01:00.139Z,95840.4
2018-07-09T10:02:02.594Z,95839.9
2018-07-09T10:03:04.781Z,95839.5
2018-07-09T10:04:07.229Z,95836.4
2018-07-09T10:05:09.165Z,95842.5
2018-07-09T10:06:11.855Z,95843.2
2018-07-09T10:07:14.354Z,95842.5
2018-07-09T10:08:16.518Z,95846.1
2018-07-09T10:09:18.440Z,95843.8
2018-07-09T10:10:20.633Z,95838.3
2018-07-09T10:11:22.547Z,95843.1
2018-07-09T10:12:25.001Z,95843.9
2018-07-09T10:13:27.177Z,95842.9
2018-07-09T10:14:29.067Z,95838.8
2018-07-09T10:15:30.971Z,95844.1
2018-07-09T10:16:33.125Z,95842
2018-07-09T10:17:35.578Z,95841.3
2018-07-09T10:18:37.754Z,95841.2
2018-07-09T10:19:39.930Z,95839.2
2018-07-09T10:20:42.123Z,95841.5
2018-07-09T10:21:44.587Z,95838.8
2018-07-09T10:22:47.245Z,95841.1
2018-07-09T10:23:49.480Z,95840.6
2018-07-09T10:24:51.116Z,95838.9
2018-07-09T10:25:53.294Z,95836.7
2018-07-09T10:26:55.761Z,95838.6
2018-07-09T10:27:57.675Z,95844.5
2018-07-09T10:29:00.125Z,95840.5
2018-07-09T10:30:01.805Z,95841.1
2018-07-09T10:31:04.016Z,95833.8
2018-07-09T10:32:06.467Z,95837.1
2018-07-09T10:33:08.348Z,95832.4
2018-07-09T10:34:10.791Z,95835.2
2018-07-09T10:35:12.972Z,95834.2
2018-07-09T10:36:14.863Z,95833.9
2018-07-09T10:37:17.058Z,95832.7
2018-07-09T10:38:19.218Z,95830.6
2018-07-09T10:39:20.844Z,95830.4
2018-07-09T10:40:23.027Z,95828.6
2018-07-09T10:41:25.206Z,95830.1
2018-07-09T10:42:27.656Z,95830.1
2018-07-09T10:43:29.584Z,95828.5
2018-07-09T10:44:31.737Z,95827
2018-07-09T10:45:33.649Z,95830.9
2018-07-09T10:46:35.818Z,95828.5
2018-07-09T10:47:38.276Z,95825.4
2018-07-09T10:48:40.458Z,95823.4
2018-07-09T10:49:42.612Z,95822.9
2018-07-09T10:50:44.536Z,95824.2
2018-07-09T10:51:46.705Z,95817.4
2018-07-09T10:52:49.165Z,95819.8
2018-07-09T10:53:51.624Z,95819.3
2018-07-09T10:54:53.807Z,95815.5
2018-07-09T10:55:55.981Z,95818.6
2018-07-09T10:56:57.893Z,95816.9
2018-07-09T10:58:00.078Z,95814.2
2018-07-09T10:59:02.236Z,95815.7
2018-07-09T11:00:03.863Z,95823.2
2018-07-09T11:01:06.044Z,95815.5
2018-07-09T11:02:08.232Z,95815.4
2018-07-09T11:03:10.684Z,95817.8
2018-07-09T11:04:13.154Z,95820.3
2018-07-09T11:05:15.606Z,95819.6
2018-07-09T11:06:17.481Z,95821.4
2018-07-09T11:07:19.672Z,95813.7
2018-07-09T11:08:21.854Z,95820.1
2018-07-09T11:09:23.771Z,95819.9
2018-07-09T11:10:25.947Z,95821.8
2018-07-09T11:11:28.135Z,95823.8
2018-07-09T11:12:30.580Z,95819.6
2018-07-09T11:13:33.028Z,95820.6
2018-07-09T11:14:34.939Z,95822.1
2018-07-09T11:15:37.427Z,95814.3
2018-07-09T11:16:39.625Z,95820.6
2018-07-09T11:17:41.543Z,95817.5
2018-07-09T11:18:43.978Z,95820.6
2018-07-09T11:19:46.423Z,95819.9
2018-07-09T11:20:48.597Z,95823.4
2018-07-09T11:21:51.041Z,95819.3
2018-07-09T11:22:53.215Z,95814.4
2018-07-09T11:23:55.677Z,95810.1
2018-07-09T11:24:57.573Z,95816.5
2018-07-09T11:25:59.492Z,95813.4
2018-07-09T11:27:01.936Z,95807.9
2018-07-09T11:28:03.918Z,95805.5
2018-07-09T11:29:06.111Z,95802.4
2018-07-09T11:30:08.569Z,95805.3
2018-07-09T11:31:10.746Z,95801.5
2018-07-09T11:32:13.212Z,95804.9
2018-07-09T11:33:15.393Z,95805.1
2018-07-09T11:34:17.604Z,95803.7
2018-07-09T11:35:20.050Z,95799.3
2018-07-09T11:36:22.469Z,95798.9
2018-07-09T11:37:24.617Z,95795.5
2018-07-09T11:38:27.060Z,95794.3
2018-07-09T11:39:29.502Z,95787.9
2018-07-09T11:40:31.686Z,95788.5
2018-07-09T11:41:33.891Z,95786.8
2018-07-09T11:42:36.074Z,95786.6
2018-07-09T11:43:38.261Z,95790.1
2018-07-09T11:44:40.536Z,95784.8
2018-07-09T11:45:42.766Z,95783.8
2018-07-09T11:46:44.948Z,95788.4
2018-07-09T11:47:46.901Z,95785.9
2018-07-09T11:48:49.346Z,95784.3
2018-07-09T11:49:51.819Z,95787
2018-07-09T11:50:54.255Z,95785.6
2018-07-09T11:51:55.876Z,95783.5
2018-07-09T11:52:58.069Z,95784.6
2018-07-09T11:54:00.512Z,95789.6
2018-07-09T11:55:02.970Z,95785.1
2018-07-09T11:56:05.139Z,95785.6
2018-07-09T11:57:07.481Z,95784.3
2018-07-09T11:58:09.929Z,95781.4
2018-07-09T11:59:11.851Z,95782.4
2018-07-09T12:00:14.065Z,95782.2
2018-07-09T12:01:16.512Z,95778.5
2018-07-09T12:02:18.958Z,95778.2
2018-07-09T12:03:21.416Z,95776.5
2018-07-09T12:04:23.862Z,95776.6
2018-07-09T12:05:26.312Z,95776
2018-07-09T12:06:28.481Z,95777
2018-07-09T12:07:29.837Z,95775.9
2018-07-09T12:08:32.024Z,95772.6
2018-07-09T12:09:34.218Z,95772.2
2018-07-09T12:10:36.159Z,95769.5
2018-07-09T12:11:38.609Z,95768.8
2018-07-09T12:12:41.047Z,95767.8
2018-07-09T12:13:43.218Z,95764.8
2018-07-09T12:14:45.399Z,95765.4
2018-07-09T12:15:47.288Z,95763.5
2018-07-09T12:16:49.472Z,95769
2018-07-09T12:17:51.120Z,95767.2
2018-07-09T12:18:53.585Z,95771.3
2018-07-09T12:19:56.033Z,95767.7
2018-07-09T12:20:58.204Z,95770.8
2018-07-09T12:22:00.375Z,95772.2
2018-07-09T12:23:02.279Z,95772.4
2018-07-09T12:24:04.175Z,95772.3
2018-07-09T12:25:06.619Z,95769.8
2018-07-09T12:26:08.809Z,95767.5
2018-07-09T12:27:10.747Z,95765.6
2018-07-09T12:28:12.636Z,95766.9
2018-07-09T12:29:15.151Z,95764
2018-07-09T12:30:17.860Z,95764.1
2018-07-09T12:31:20.321Z,95759.6
2018-07-09T12:32:22.470Z,95761.8
2018-07-09T12:33:24.941Z,95761.8
2018-07-09T12:34:27.401Z,95762.1
2018-07-09T12:35:29.586Z,95759
2018-07-09T12:36:32.053Z,95762.5
2018-07-09T12:37:34.438Z,95757.7